Flight Track Log - Related Links

Times and Time Zones

All times are in EDT time to prevent confusion due to time zone crossing. See the N975TB flight status page for this flight to view local times or setup timezone preferences in your user account.

Time Position Orientation Groundspeed Altitude Reporting Facility
EDT Latitude Longitude Course Direction KTS MPH feet Rate Location/Type
Sun 11:14:46 AM 41.6667 -74.7667 166° South 141 162 3,000  Level New York TRACON
Sun 11:15:46 AM 41.6167 -74.7500 166° South 146 168 4,500 1,095 Climbing New York TRACON
Sun 11:16:52 AM 41.5667 -74.7333 166° South 171 197 5,300 309 Climbing New York TRACON
Sun 11:18:00 AM 41.5187 -74.8071 217° Southwest  Level Estimated
Sun 11:18:41 AM 41.5314 -74.8253 217° Southwest 173 199 5,400  Level New York Center
Sun 11:19:42 AM 41.5294 -74.8806 267° West 180 207 6,000 814 Climbing New York Center
Sun 11:20:39 AM 41.5244 -74.9661 266° West 201 231 7,000 958 Climbing New York Center
Sun 11:21:41 AM 41.5178 -75.0378 263° West 207 238 7,900 885 Climbing New York Center
Sun 11:22:41 AM 41.5111 -75.1064 263° West 197 227 8,800 1,017 Climbing New York Center
Sun 11:23:39 AM 41.5067 -75.1672 264° West 197 227 9,900 1,462 Climbing New York Center
Sun 11:24:40 AM 41.5025 -75.2222 264° West 175 201 11,700 1,587 Climbing New York Center
Sun 11:25:40 AM 41.4942 -75.2800 259° West 151 174 13,100 1,388 Climbing New York Center
Sun 11:26:41 AM 41.4900 -75.3322 264° West 146 168 14,500 1,311 Climbing New York Center
Sun 11:27:39 AM 41.4858 -75.3872 264° West 146 168 15,700 1,271 Climbing New York Center
Sun 11:28:39 AM 41.4797 -75.4367 261° West 151 174 17,000 1,140 Climbing New York Center
Sun 11:29:40 AM 41.4794 -75.4947 270° West 158 182 18,000 942 Climbing New York Center
Sun 11:30:40 AM 41.4894 -75.5592 282° West 158 182 18,900 992 Climbing New York Center
Sun 11:31:41 AM 41.5139 -75.6219 297° West 173 199 20,000 992 Climbing New York Center
Sun 11:32:41 AM 41.5381 -75.6931 294° West 194 223 20,900 1,000 Climbing New York Center
Sun 11:33:41 AM 41.5542 -75.7581 288° West 194 223 22,000 1,068 Climbing New York Center
Sun 11:34:39 AM 41.5744 -75.8231 293° West 194 223 23,000 1,008 Climbing New York Center
Sun 11:35:40 AM 41.5942 -75.8914 291° West 194 223 24,000 934 Climbing New York Center
Sun 11:36:41 AM 41.6142 -75.9622 291° West 199 229 24,900 496 Climbing New York Center
Sun 11:37:41 AM 41.6356 -76.0417 290° West 205 236 25,000 51 Climbing New York Center
Sun 11:38:39 AM 41.6589 -76.1267 290° West 227 261 25,000 -51 Level New York Center
Sun 11:39:39 AM 41.6806 -76.1978 292° West 243 280 24,900 -50 Descending New York Center
Sun 11:40:40 AM 41.6528 -76.3039 251° West 244 281 24,900 942 Level New York Center
Sun 11:41:40 AM 41.6225 -76.3764 241° Southwest 234 269 26,800 1,250 Climbing New York Center
Sun 11:42:40 AM 41.5944 -76.4406 240° Southwest 221 254 27,400 605 Climbing New York Center
Sun 11:43:39 AM 41.5661 -76.5075 241° Southwest 215 247 28,000 303 Climbing New York Center
Sun 11:44:39 AM 41.5353 -76.5853 242° Southwest 222 255 28,000  Level New York Center
Sun 11:45:40 AM 41.5003 -76.6625 239° Southwest 233 268 28,000 -49 Level New York Center
Sun 11:46:41 AM 41.4647 -76.7453 240° Southwest 244 281 27,900 -50 Descending New York Center
Sun 11:47:41 AM 41.4294 -76.8278 240° Southwest 254 292 27,900  Level New York Center
Sun 11:48:39 AM 41.3939 -76.9106 240° Southwest 259 298 27,900 50 Level New York Center
Sun 11:49:40 AM 41.3564 -76.9928 239° Southwest 259 298 28,000  Climbing New York Center
Sun 11:50:41 AM 41.3206 -77.0750 240° Southwest 259 298 27,900  Descending New York Center
Sun 11:51:41 AM 41.2850 -77.1575 240° Southwest 264 304 28,000  Climbing New York Center
Sun 11:52:39 AM 41.2472 -77.2394 239° Southwest 264 304 27,900 -51 Descending New York Center
Sun 11:53:39 AM 41.2111 -77.3269 241° Southwest 264 304 27,900 50 Level New York Center
Sun 11:54:40 AM 41.1778 -77.4036 240° Southwest 264 304 28,000  Climbing New York Center
Sun 11:55:41 AM 41.1419 -77.4856 240° Southwest 259 298 27,900 -50 Descending New York Center
Sun 11:56:41 AM 41.0981 -77.5583 231° Southwest 259 298 27,900  Level New York Center
Sun 11:57:42 AM 41.0522 -77.6336 231° Southwest 264 304 27,900 50 Level New York Center
Sun 11:58:40 AM 41.0061 -77.7061 230° Southwest 264 304 28,000  Climbing New York Center
Sun 11:59:40 AM 40.9564 -77.7725 225° Southwest 264 304 27,900  Descending New York Center
Sun 12:04:00 PM 40.7522 -78.0531 226° Southwest 250 288 28,000 19 Climbing Cleveland Center
Sun 12:05:00 PM 40.7056 -78.1208 228° Southwest 250 288 28,000  Level Cleveland Center
Sun 12:06:00 PM 40.6569 -78.1883 227° Southwest 250 288 28,000 -50 Level Cleveland Center
Sun 12:07:00 PM 40.6083 -78.2556 226° Southwest 250 288 27,900  Descending Cleveland Center
Sun 12:08:00 PM 40.5619 -78.3256 229° Southwest 250 288 28,000 50 Climbing Cleveland Center
Sun 12:09:00 PM 40.5111 -78.3928 225° Southwest 250 288 28,000 -50 Level Cleveland Center
Sun 12:10:00 PM 40.4622 -78.4628 227° Southwest 250 288 27,900  Descending Cleveland Center
Sun 12:11:00 PM 40.4136 -78.5325 228° Southwest 250 288 28,000 50 Climbing Cleveland Center
Sun 12:12:00 PM 40.3667 -78.5992 227° Southwest 250 288 28,000  Level Cleveland Center
Sun 12:13:00 PM 40.3181 -78.6689 228° Southwest 250 288 28,000  Level Cleveland Center
Sun 12:14:00 PM 40.2692 -78.7383 227° Southwest 250 288 28,000  Level Cleveland Center
Sun 12:15:00 PM 40.2222 -78.8047 227° Southwest 250 288 28,000  Level Cleveland Center
Sun 12:16:00 PM 40.1839 -78.8956 241° Southwest 257 296 28,000  Level Cleveland Center
Sun 12:17:00 PM 40.1517 -78.9778 243° Southwest 257 296 28,000  Level Cleveland Center
Sun 12:18:00 PM 40.1194 -79.0572 242° Southwest 257 296 28,000  Level Cleveland Center
Sun 12:19:00 PM 40.0850 -79.1367 240° Southwest 252 290 28,000  Level Cleveland Center
Sun 12:20:00 PM 40.0589 -79.2025 243° Southwest 252 290 28,000  Level Cleveland Center
Sun 12:21:00 PM 40.0222 -79.2817 239° Southwest 246 283 28,000  Level Cleveland Center
Sun 12:22:00 PM 39.9792 -79.3503 231° Southwest 246 283 28,000  Level Cleveland Center
Sun 12:23:00 PM 39.9342 -79.4161 228° Southwest 251 289 28,000  Level Cleveland Center
Sun 12:24:00 PM 39.8908 -79.4844 230° Southwest 251 289 28,000  Level Cleveland Center
Sun 12:25:00 PM 39.8519 -79.5528 233° Southwest 251 289 28,000  Level Cleveland Center
Sun 12:26:00 PM 39.8278 -79.6369 250° West 251 289 28,000  Level Cleveland Center
Sun 12:27:00 PM 39.8033 -79.7211 249° West 251 289 28,000  Level Cleveland Center
Sun 12:28:00 PM 39.7811 -79.8050 251° West 251 289 28,000  Level Cleveland Center
Sun 12:29:00 PM 39.7586 -79.8892 251° West 251 289 28,000  Level Cleveland Center
Sun 12:30:00 PM 39.7361 -79.9811 252° West 251 289 28,000  Level Cleveland Center
Sun 12:31:00 PM 39.7117 -80.0675 250° West 251 289 28,000  Level Cleveland Center
Sun 12:32:00 PM 39.6933 -80.1514 254° West 251 289 28,000  Level Cleveland Center
Sun 12:33:00 PM 39.6728 -80.2378 253° West 251 289 28,000 -50 Level Cleveland Center
Sun 12:34:00 PM 39.6500 -80.3242 251° West 251 289 27,900 -50 Descending Cleveland Center
Sun 12:35:00 PM 39.6292 -80.4106 253° West 251 289 27,900 50 Level Cleveland Center
Sun 12:36:00 PM 39.6106 -80.4889 253° West 246 283 28,000  Climbing Cleveland Center
Sun 12:37:00 PM 39.5919 -80.5694 253° West 246 283 27,900  Descending Cleveland Center
Sun 12:38:00 PM 39.5772 -80.6531 257° West 246 283 28,000 50 Climbing Cleveland Center
Sun 12:39:00 PM 39.5606 -80.7339 255° West 241 277 28,000  Level Cleveland Center
Sun 12:40:00 PM 39.5269 -80.7956 235° Southwest 241 277 28,000  Level Cleveland Center
Sun 12:41:29 PM 39.4461 -80.8550 210° Southwest 226 260 28,000  Level Indianapolis Center
Sun 12:42:31 PM 39.3919 -80.9008 213° Southwest 231 266 28,000  Level Indianapolis Center
Sun 12:43:33 PM 39.3364 -80.9481 213° Southwest 237 273 28,000  Level Indianapolis Center
Sun 12:44:34 PM 39.2806 -80.9958 214° Southwest 239 275 28,000  Level Indianapolis Center
Sun 12:45:36 PM 39.2247 -81.0422 213° Southwest 238 274 28,000  Level Indianapolis Center
Sun 12:46:38 PM 39.1697 -81.0892 213° Southwest 238 274 28,000  Level Indianapolis Center
Sun 12:47:40 PM 39.1044 -81.1444 213° Southwest 235 270 28,000  Level Indianapolis Center
Sun 12:48:42 PM 39.0492 -81.1900 213° Southwest 235 270 28,000  Level Indianapolis Center
Sun 12:49:43 PM 38.9944 -81.2369 214° Southwest 235 270 28,000  Level Indianapolis Center
Sun 12:50:45 PM 38.9406 -81.2814 213° Southwest 232 267 28,000  Level Indianapolis Center
Sun 12:51:47 PM 38.8864 -81.3267 213° Southwest 232 267 28,000  Level Indianapolis Center
Sun 12:52:49 PM 38.8319 -81.3717 213° Southwest 232 267 28,000  Level Indianapolis Center
Sun 12:53:51 PM 38.7778 -81.4164 213° Southwest 230 265 28,000  Level Indianapolis Center
Sun 12:54:53 PM 38.7183 -81.4667 213° Southwest 233 268 28,000  Level Indianapolis Center
Sun 12:55:55 PM 38.6542 -81.5186 212° Southwest 234 269 28,000  Level Indianapolis Center
Sun 12:56:57 PM 38.5989 -81.5647 213° Southwest 235 270 28,000  Level Indianapolis Center
Sun 12:57:59 PM 38.5417 -81.6125 213° Southwest 237 273 28,000  Level Indianapolis Center
Sun 12:59:01 PM 38.4867 -81.6575 213° Southwest 234 269 28,000  Level Indianapolis Center
Sun 01:00:03 PM 38.4319 -81.7033 213° Southwest 235 270 28,000  Level Indianapolis Center
Sun 01:01:05 PM 38.3758 -81.7486 212° Southwest 237 273 28,000  Level Indianapolis Center
Sun 01:02:07 PM 38.3169 -81.7842 205° Southwest 237 273 28,000  Level Indianapolis Center
Sun 01:03:08 PM 38.2558 -81.8111 199° South 233 268 28,000  Level Indianapolis Center
Sun 01:04:10 PM 38.1939 -81.8389 199° South 235 270 28,000  Level Indianapolis Center
Sun 01:05:12 PM 38.1206 -81.8711 199° South 233 268 28,000  Level Indianapolis Center
Sun 01:06:14 PM 38.0569 -81.8978 198° South 238 274 28,000  Level Indianapolis Center
Sun 01:07:16 PM 37.9950 -81.9253 199° South 236 272 28,000  Level Indianapolis Center
Sun 01:08:18 PM 37.9336 -81.9522 199° South 234 269 28,000  Level Indianapolis Center
Sun 01:09:20 PM 37.8703 -81.9803 199° South 238 274 28,000  Level Indianapolis Center
Sun 01:10:22 PM 37.8000 -82.0086 198° South 239 275 28,000  Level Indianapolis Center
Sun 01:11:23 PM 37.7383 -82.0367 200° South 236 272 28,000  Level Indianapolis Center
Sun 01:12:25 PM 37.6744 -82.0639 199° South 241 277 28,000  Level Indianapolis Center
Sun 01:13:27 PM 37.6131 -82.0914 200° South 235 270 28,000  Level Indianapolis Center
Sun 01:14:29 PM 37.5497 -82.1178 198° South 237 273 28,000  Level Indianapolis Center
Sun 01:15:31 PM 37.4769 -82.1497 199° South 237 273 28,000  Level Indianapolis Center
Sun 01:16:33 PM 37.4144 -82.1758 198° South 236 272 28,000  Level Indianapolis Center
Sun 01:17:34 PM 37.3539 -82.2014 199° South 230 265 28,000  Level Indianapolis Center
Sun 01:18:36 PM 37.2944 -82.2269 199° South 226 260 28,000  Level Indianapolis Center
Sun 01:19:38 PM 37.2364 -82.2514 199° South 221 254 28,000  Level Indianapolis Center
Sun 01:20:40 PM 37.1778 -82.2767 199° South 221 254 28,000  Level Indianapolis Center
Sun 01:21:42 PM 37.1069 -82.3061 198° South 228 262 28,000  Level Indianapolis Center
Sun 01:22:44 PM 37.0461 -82.3336 200° South 230 265 28,000  Level Indianapolis Center
Sun 01:23:46 PM 36.9844 -82.3589 198° South 231 266 28,000  Level Indianapolis Center
Sun 01:24:48 PM 36.9228 -82.3844 198° South 231 266 28,000  Level Indianapolis Center
Sun 01:25:49 PM 36.8614 -82.4106 199° South 232 267 28,000  Level Indianapolis Center
Sun 01:26:51 PM 36.8042 -82.4481 208° Southwest 232 267 28,000  Level Indianapolis Center
Sun 01:27:53 PM 36.7467 -82.4867 208° Southwest 234 269 28,000  Level Indianapolis Center
Sun 01:28:55 PM 36.6803 -82.5319 209° Southwest 232 267 28,000  Level Indianapolis Center
Sun 01:29:57 PM 36.6222 -82.5711 208° Southwest 235 270 28,000  Level Indianapolis Center
Sun 01:30:45 PM 36.5733 -82.6014 206° Southwest 237 273 28,000  Level Atlanta Center
Sun 01:31:45 PM 36.5236 -82.6386 211° Southwest 237 273 28,000  Level Atlanta Center
Sun 01:32:45 PM 36.4636 -82.6758 207° Southwest 237 273 28,000  Level Atlanta Center
Sun 01:33:45 PM 36.4078 -82.7153 210° Southwest 237 273 28,000  Level Atlanta Center
Sun 01:34:45 PM 36.3519 -82.7550 210° Southwest 237 273 28,000  Level Atlanta Center
Sun 01:35:45 PM 36.2919 -82.7944 208° Southwest 243 280 28,000  Level Atlanta Center
Sun 01:36:45 PM 36.2358 -82.8314 208° Southwest 243 280 28,000  Level Atlanta Center
Sun 01:37:45 PM 36.1778 -82.8708 209° Southwest 238 274 28,000  Level Atlanta Center
Sun 01:38:45 PM 36.1219 -82.9103 210° Southwest 238 274 28,000  Level Atlanta Center
Sun 01:39:45 PM 36.0639 -82.9469 207° Southwest 238 274 28,000  Level Atlanta Center
Sun 01:40:45 PM 36.0058 -82.9864 209° Southwest 238 274 28,000  Level Atlanta Center
Sun 01:41:45 PM 35.9478 -83.0256 209° Southwest 238 274 28,000  Level Atlanta Center
Sun 01:42:45 PM 35.8897 -83.0647 209° Southwest 244 281 28,000  Level Atlanta Center
Sun 01:43:45 PM 35.8294 -83.1039 208° Southwest 244 281 28,000  Level Atlanta Center
Sun 01:44:45 PM 35.7650 -83.1481 209° Southwest 250 288 28,000  Level Atlanta Center
Sun 01:45:45 PM 35.7069 -83.1844 207° Southwest 244 281 28,000  Level Atlanta Center
Sun 01:46:45 PM 35.6467 -83.2261 209° Southwest 249 287 28,000  Level Atlanta Center
Sun 01:47:45 PM 35.5906 -83.2675 211° Southwest 249 287 28,000 -200 Level Atlanta Center
Sun 01:48:45 PM 35.5283 -83.3064 207° Southwest 249 287 27,600 -700 Descending Atlanta Center
Sun 01:49:45 PM 35.4639 -83.3503 209° Southwest 249 287 26,600 -1,000 Descending Atlanta Center
Sun 01:50:45 PM 35.3953 -83.3942 208° Southwest 262 302 25,600 -1,100 Descending Atlanta Center
Sun 01:51:45 PM 35.3308 -83.4328 206° Southwest 268 308 24,400 -1,250 Descending Atlanta Center
Sun 01:52:45 PM 35.2706 -83.4767 211° Southwest 262 302 23,100 -1,350 Descending Atlanta Center
Sun 01:53:45 PM 35.2103 -83.5125 206° Southwest 256 295 21,700 -1,300 Descending Atlanta Center
Sun 01:54:45 PM 35.1561 -83.5511 210° Southwest 251 289 20,500 -1,400 Descending Atlanta Center
Sun 01:55:45 PM 35.0917 -83.5919 207° Southwest 246 283 18,900 -1,350 Descending Atlanta Center
Sun 01:56:45 PM 35.0353 -83.6278 207° Southwest 246 283 17,800 -950 Descending Atlanta Center
Sun 01:57:45 PM 34.9833 -83.6611 208° Southwest 232 267 17,000 -850 Descending Atlanta Center
Sun 01:58:45 PM 34.9375 -83.6867 205° Southwest 220 253 16,100 -1,000 Descending Atlanta Center
Sun 01:59:45 PM 34.8853 -83.7197 207° Southwest 207 238 15,000 -1,050 Descending Atlanta Center
Sun 02:00:45 PM 34.8353 -83.7528 208° Southwest 202 232 14,000 -950 Descending Atlanta Center
Sun 02:01:45 PM 34.7875 -83.7808 206° Southwest 202 232 13,100 -850 Descending Atlanta Center
Sun 02:02:45 PM 34.7394 -83.8114 208° Southwest 197 227 12,300 -750 Descending Atlanta Center
Sun 02:03:45 PM 34.6936 -83.8392 206° Southwest 197 227 11,600 -750 Descending Atlanta Center
Sun 02:04:45 PM 34.6478 -83.8669 207° Southwest 192 221 10,800 -750 Descending Atlanta Center
Sun 02:05:45 PM 34.5978 -83.8975 207° Southwest 192 221 10,100 -700 Descending Atlanta Center
Sun 02:06:45 PM 34.5478 -83.9303 208° Southwest 197 227 9,400 -650 Descending Atlanta Center
Sun 02:07:45 PM 34.5017 -83.9581 206° Southwest 197 227 8,800 -700 Descending Atlanta Center
Sun 02:08:45 PM 34.4517 -83.9883 207° Southwest 197 227 8,000 -450 Descending Atlanta Center
Sun 02:09:45 PM 34.4036 -84.0211 209° Southwest 203 234 7,900 -50 Descending Atlanta Center
Sun 02:10:45 PM 34.3642 -84.0614 220° Southwest 198 228 7,900  Level Atlanta Center
Sun 02:11:45 PM 34.3181 -84.0992 214° Southwest 198 228 7,900 -50 Level Atlanta Center
Sun 02:12:45 PM 34.2722 -84.1292 208° Southwest 193 222 7,800 -350 Descending Atlanta Center
Sun 02:13:45 PM 34.2178 -84.1492 197° South 183 211 7,200 -700 Descending Atlanta Center
Sun 02:14:45 PM 34.1700 -84.1669 197° South 183 211 6,400 -650 Descending Atlanta Center
Sun 02:15:45 PM 34.1178 -84.1717 184° South 183 211 5,900 -350 Descending Atlanta Center
Sun 02:16:45 PM 34.0656 -84.1767 185° South 189 217 5,700 -500 Descending Atlanta Center
Sun 02:17:45 PM 34.0342 -84.2267 233° Southwest 179 206 4,900 -1,050 Descending Atlanta Center
Sun 02:18:45 PM 34.0172 -84.2819 250° West 186 214 3,600 -1,000 Descending Atlanta Center
Sun 02:19:45 PM 34.0172 -84.3269 270° West 153 176 2,900 -210 Descending Atlanta Center
Sun 02:22:05 PM 34.0167 -84.4333 270° West 135 155 2,900  Level Atlanta TRACON
Sun 02:23:05 PM 34.0167 -84.4667 270° West 108 124 2,900 -300 Level Atlanta TRACON
Sun 02:24:05 PM 34.0167 -84.5167 270° West 109 125 2,300 -600 Descending Atlanta TRACON

Login

Don't have an account? Register now (free) for customized features, flight alerts, and more!